createdAt,value
2023-01-07T00:02:15.929Z,3.40
2023-01-07T00:04:44.169Z,3.30
2023-01-07T00:07:13.746Z,3.40
2023-01-07T00:09:41.819Z,3.43
2023-01-07T00:12:10.013Z,2.97
2023-01-07T00:14:38.144Z,3.07
2023-01-07T00:17:06.193Z,2.93
2023-01-07T00:19:34.371Z,3.07
2023-01-07T00:22:02.511Z,2.83
2023-01-07T00:24:32.044Z,3.83
2023-01-07T00:27:00.170Z,3.13
2023-01-07T00:29:28.204Z,2.93
2023-01-07T00:31:57.355Z,2.93
2023-01-07T00:34:25.521Z,2.43
2023-01-07T00:37:13.635Z,3.07
2023-01-07T00:39:43.934Z,2.90
2023-01-07T00:42:43.851Z,2.97
2023-01-07T00:45:12.760Z,3.13
2023-01-07T00:47:41.013Z,2.80
2023-01-07T00:50:09.838Z,2.50
2023-01-07T00:52:37.855Z,3.00
2023-01-07T00:55:11.155Z,3.13
2023-01-07T00:57:39.267Z,3.00
2023-01-07T01:00:08.887Z,3.10
2023-01-07T01:02:37.235Z,3.33
2023-01-07T01:05:06.770Z,3.27
2023-01-07T01:07:35.266Z,3.40
2023-01-07T01:10:03.763Z,3.47
2023-01-07T01:12:35.328Z,3.53
2023-01-07T01:15:03.625Z,3.30
2023-01-07T01:17:31.771Z,3.20
2023-01-07T01:20:00.305Z,2.97
2023-01-07T01:22:28.628Z,3.53
2023-01-07T01:24:56.741Z,3.37
2023-01-07T01:27:24.911Z,3.30
2023-01-07T01:29:54.402Z,3.60
2023-01-07T01:32:22.489Z,3.73
2023-01-07T01:34:50.872Z,2.80
2023-01-07T01:37:19.099Z,3.20
2023-01-07T01:39:47.571Z,3.20
2023-01-07T01:42:15.849Z,3.37
2023-01-07T01:44:50.448Z,3.53
2023-01-07T01:47:24.072Z,2.87
2023-01-07T01:49:58.795Z,3.80
2023-01-07T01:52:33.095Z,3.60
2023-01-07T01:55:03.206Z,3.20
2023-01-07T01:57:34.321Z,3.23
2023-01-07T02:00:02.950Z,3.50
2023-01-07T02:02:35.999Z,4.20
2023-01-07T02:05:04.952Z,3.60
2023-01-07T02:07:32.937Z,4.20
2023-01-07T02:10:02.911Z,4.60
2023-01-07T02:12:43.186Z,4.30
2023-01-07T02:15:15.375Z,4.60
2023-01-07T02:18:12.787Z,4.80
2023-01-07T02:20:51.994Z,4.03
2023-01-07T02:23:59.797Z,4.03
2023-01-07T02:26:51.689Z,3.80
2023-01-07T02:29:57.103Z,4.03
2023-01-07T02:32:43.546Z,3.70
2023-01-07T02:35:26.968Z,4.37
2023-01-07T02:38:06.110Z,4.70
2023-01-07T02:40:43.654Z,4.50
2023-01-07T02:43:20.733Z,4.27
2023-01-07T02:45:52.136Z,4.73
2023-01-07T02:48:24.110Z,4.97
2023-01-07T02:50:52.354Z,4.40
2023-01-07T02:53:21.911Z,4.90
2023-01-07T02:56:03.068Z,4.40
2023-01-07T02:59:11.285Z,4.57
2023-01-07T03:01:54.147Z,4.90
2023-01-07T03:04:58.508Z,4.53
2023-01-07T03:07:38.737Z,5.10
2023-01-07T03:10:17.656Z,6.67
2023-01-07T03:12:52.476Z,5.40
2023-01-07T03:15:29.129Z,5.80
2023-01-07T03:18:03.401Z,5.80
2023-01-07T03:20:35.678Z,6.00
2023-01-07T03:23:07.705Z,5.97
2023-01-07T03:25:39.003Z,7.93
2023-01-07T03:28:10.965Z,6.83
2023-01-07T03:30:40.005Z,7.67
2023-01-07T03:33:13.533Z,9.03
2023-01-07T03:35:45.572Z,9.90
2023-01-07T03:38:16.315Z,8.87
2023-01-07T03:40:46.208Z,7.53
2023-01-07T03:43:14.133Z,7.97
2023-01-07T03:45:43.870Z,8.30
2023-01-07T03:48:12.050Z,9.00
2023-01-07T03:50:40.294Z,8.87
2023-01-07T03:53:09.838Z,8.63
2023-01-07T03:55:38.965Z,8.23
2023-01-07T03:58:07.073Z,8.53
2023-01-07T04:00:35.338Z,8.47
2023-01-07T04:03:03.563Z,8.93
2023-01-07T04:05:31.607Z,10.07
2023-01-07T04:07:59.957Z,9.73
2023-01-07T04:10:29.477Z,8.90
2023-01-07T04:12:57.755Z,10.30
2023-01-07T04:15:25.878Z,13.43
2023-01-07T04:17:54.262Z,13.90
2023-01-07T04:20:22.408Z,28.70
2023-01-07T04:22:50.567Z,15.10
2023-01-07T04:25:18.721Z,11.00
2023-01-07T04:27:48.149Z,9.27
2023-01-07T04:30:16.285Z,8.90
2023-01-07T04:32:44.328Z,9.70
2023-01-07T04:35:12.481Z,8.33
2023-01-07T04:37:40.541Z,9.03
2023-01-07T04:40:10.140Z,9.20
2023-01-07T04:42:38.209Z,7.57
2023-01-07T04:45:08.980Z,7.80
2023-01-07T04:47:37.065Z,8.27
2023-01-07T04:50:05.481Z,7.60
2023-01-07T04:52:33.872Z,8.57
2023-01-07T04:55:01.967Z,8.73
2023-01-07T04:57:30.205Z,11.57
2023-01-07T04:59:58.266Z,10.00
2023-01-07T05:02:27.745Z,8.30
2023-01-07T05:04:55.811Z,7.07
2023-01-07T05:07:23.898Z,6.80
2023-01-07T05:09:52.121Z,6.47
2023-01-07T05:12:20.277Z,6.23
2023-01-07T05:14:48.976Z,6.43
2023-01-07T05:17:17.611Z,6.60
2023-01-07T05:19:47.094Z,6.07
2023-01-07T05:22:15.231Z,6.73
2023-01-07T05:24:43.334Z,7.07
2023-01-07T05:27:12.106Z,7.53
2023-01-07T05:29:40.323Z,6.93
2023-01-07T05:32:09.641Z,6.93
2023-01-07T05:34:37.748Z,9.70
2023-01-07T05:37:07.350Z,11.50
2023-01-07T05:39:35.847Z,10.20
2023-01-07T05:42:03.977Z,9.50
2023-01-07T05:44:32.213Z,9.73
2023-01-07T05:47:00.336Z,11.67
2023-01-07T05:49:28.439Z,10.47
2023-01-07T05:51:57.589Z,11.03
2023-01-07T05:54:27.760Z,10.67
2023-01-07T05:56:55.826Z,10.93
2023-01-07T05:59:25.328Z,10.67
2023-01-07T06:01:53.517Z,10.80
2023-01-07T06:04:21.998Z,9.93
2023-01-07T06:06:50.256Z,10.07
2023-01-07T06:09:18.312Z,11.33
2023-01-07T06:11:47.787Z,9.87
2023-01-07T06:14:16.171Z,10.80
2023-01-07T06:16:44.308Z,12.23
2023-01-07T06:19:12.527Z,11.33
2023-01-07T06:21:40.638Z,10.47
2023-01-07T06:24:09.770Z,9.67
2023-01-07T06:26:37.871Z,11.53
2023-01-07T06:29:07.379Z,10.73
2023-01-07T06:31:35.650Z,10.50
2023-01-07T06:34:03.784Z,10.13
2023-01-07T06:36:31.810Z,10.87
2023-01-07T06:38:59.855Z,12.90
2023-01-07T06:41:27.866Z,14.63
2023-01-07T06:43:56.004Z,12.20
2023-01-07T06:46:25.905Z,11.10
2023-01-07T06:48:54.148Z,12.93
2023-01-07T06:51:22.364Z,12.57
2023-01-07T06:53:50.414Z,14.97
2023-01-07T06:56:18.681Z,11.57
2023-01-07T06:58:46.750Z,12.33
2023-01-07T07:01:14.923Z,15.27
2023-01-07T07:03:44.436Z,15.00
2023-01-07T07:07:04.886Z,15.47
2023-01-07T07:09:33.196Z,13.30
2023-01-07T07:12:01.460Z,14.10
2023-01-07T07:14:29.661Z,14.10
2023-01-07T07:16:57.789Z,14.17
2023-01-07T07:19:27.730Z,15.10
2023-01-07T07:21:56.127Z,14.07
2023-01-07T07:24:24.324Z,15.77
2023-01-07T07:26:53.045Z,15.83
2023-01-07T07:29:21.873Z,16.00
2023-01-07T07:31:50.083Z,17.83
2023-01-07T07:34:18.692Z,17.30
2023-01-07T07:36:48.279Z,17.00
2023-01-07T07:39:17.030Z,14.67
2023-01-07T07:41:45.506Z,11.77
2023-01-07T07:44:13.794Z,12.20
2023-01-07T07:46:42.347Z,12.63
2023-01-07T07:49:11.586Z,11.13
2023-01-07T07:51:40.391Z,10.57
2023-01-07T07:54:09.958Z,9.43
2023-01-07T07:56:38.079Z,8.87
2023-01-07T07:59:06.353Z,9.23
2023-01-07T08:01:37.161Z,12.50
2023-01-07T08:04:05.539Z,9.00
2023-01-07T08:06:34.443Z,9.33
2023-01-07T08:09:02.734Z,8.57
2023-01-07T08:11:32.478Z,7.87
2023-01-07T08:14:00.961Z,8.50
2023-01-07T08:16:29.523Z,8.23
2023-01-07T08:18:57.608Z,8.13
2023-01-07T08:21:25.864Z,7.80
2023-01-07T08:23:53.959Z,7.80
2023-01-07T08:26:24.616Z,8.00
2023-01-07T08:28:54.328Z,6.83
2023-01-07T08:31:22.690Z,6.80
2023-01-07T08:33:50.922Z,6.60
2023-01-07T08:36:23.120Z,7.43
2023-01-07T08:38:52.700Z,7.30
2023-01-07T08:41:21.086Z,6.50
2023-01-07T08:43:49.273Z,7.20
2023-01-07T08:46:18.961Z,6.40
2023-01-07T08:48:47.162Z,6.83
2023-01-07T08:51:15.266Z,6.33
2023-01-07T08:53:43.284Z,8.70
2023-01-07T08:56:11.492Z,7.13
2023-01-07T08:58:39.825Z,6.90
2023-01-07T09:01:08.831Z,8.03
2023-01-07T09:03:40.032Z,8.20
2023-01-07T09:06:08.783Z,7.03
2023-01-07T09:08:37.197Z,9.43
2023-01-07T09:11:06.119Z,7.60
2023-01-07T09:13:34.623Z,6.07
2023-01-07T09:16:04.404Z,6.47
2023-01-07T09:18:32.700Z,5.90
2023-01-07T09:21:02.143Z,5.60
2023-01-07T09:23:30.256Z,6.47
2023-01-07T09:25:58.614Z,6.53
2023-01-07T09:28:26.710Z,5.37
2023-01-07T09:30:56.778Z,6.10
2023-01-07T09:33:25.039Z,5.80
2023-01-07T09:35:53.308Z,6.70
2023-01-07T09:38:22.951Z,5.93
2023-01-07T09:40:51.437Z,5.70
2023-01-07T09:44:01.155Z,5.37
2023-01-07T09:46:18.807Z,5.00
2023-01-07T09:48:54.091Z,5.50
2023-01-07T09:51:27.367Z,4.93
2023-01-07T09:54:03.508Z,4.77
2023-01-07T09:56:33.860Z,4.67
2023-01-07T09:59:03.207Z,5.20
2023-01-07T10:01:40.583Z,5.70
2023-01-07T10:04:26.417Z,4.50
2023-01-07T10:07:03.739Z,4.20
2023-01-07T10:09:45.667Z,3.60
2023-01-07T10:12:24.131Z,4.40
2023-01-07T10:15:06.621Z,3.23
2023-01-07T10:17:55.195Z,3.93
2023-01-07T10:20:32.540Z,3.23
2023-01-07T10:23:05.620Z,3.20
2023-01-07T10:25:41.245Z,3.60
2023-01-07T10:28:16.414Z,3.27
2023-01-07T10:30:47.364Z,3.83
2023-01-07T10:33:25.231Z,2.90
2023-01-07T10:36:01.381Z,3.23
2023-01-07T10:38:34.683Z,3.03
2023-01-07T10:41:11.155Z,3.20
2023-01-07T10:43:59.890Z,2.87
2023-01-07T10:46:43.979Z,3.30
2023-01-07T10:49:25.184Z,3.70
2023-01-07T10:52:12.527Z,3.70
2023-01-07T10:54:59.509Z,3.47
2023-01-07T10:57:31.696Z,4.57
2023-01-07T11:00:04.027Z,3.97
2023-01-07T11:02:32.312Z,3.40
2023-01-07T11:05:01.273Z,3.80
2023-01-07T11:07:40.376Z,3.40
2023-01-07T11:10:13.994Z,3.70
2023-01-07T11:12:47.779Z,3.60
2023-01-07T11:15:20.488Z,3.47
2023-01-07T11:17:53.971Z,3.07
2023-01-07T11:20:48.898Z,3.43
2023-01-07T11:23:29.368Z,3.50
2023-01-07T11:26:10.333Z,3.60
2023-01-07T11:28:45.105Z,3.70
2023-01-07T11:31:13.275Z,3.23
2023-01-07T11:34:01.511Z,3.10
2023-01-07T11:36:42.770Z,3.37
2023-01-07T11:39:12.837Z,3.73
2023-01-07T11:41:53.894Z,3.67
2023-01-07T11:44:23.474Z,4.00
2023-01-07T11:46:51.802Z,4.20
2023-01-07T11:49:26.387Z,3.20
2023-01-07T11:51:55.271Z,2.90
2023-01-07T11:54:26.425Z,3.00
2023-01-07T11:56:55.495Z,3.07
2023-01-07T11:59:31.766Z,2.77
2023-01-07T12:02:01.194Z,3.10
2023-01-07T12:04:31.279Z,3.37
2023-01-07T12:07:02.507Z,3.80
2023-01-07T12:09:37.671Z,3.20
2023-01-07T12:12:27.767Z,4.20
2023-01-07T12:14:58.119Z,4.30
2023-01-07T12:17:28.724Z,4.27
2023-01-07T12:20:30.961Z,4.30
2023-01-07T12:23:10.548Z,4.70
2023-01-07T12:25:50.157Z,4.67
2023-01-07T12:28:21.256Z,4.67
2023-01-07T12:31:12.419Z,5.10
2023-01-07T12:34:04.995Z,4.53
2023-01-07T12:36:41.877Z,5.13
2023-01-07T12:39:17.161Z,3.93
2023-01-07T12:41:49.349Z,3.23
2023-01-07T12:44:22.661Z,3.47
2023-01-07T12:47:29.873Z,3.80
2023-01-07T12:49:57.736Z,3.87
2023-01-07T12:52:38.521Z,3.57
2023-01-07T12:55:21.111Z,2.80
2023-01-07T12:58:01.544Z,3.13
2023-01-07T13:00:33.505Z,3.23
2023-01-07T13:03:19.524Z,3.30
2023-01-07T13:05:53.767Z,2.70
2023-01-07T13:08:31.019Z,3.20
2023-01-07T13:11:04.759Z,2.90
2023-01-07T13:13:39.622Z,3.40
2023-01-07T13:16:12.177Z,4.20
2023-01-07T13:18:41.842Z,3.60
2023-01-07T13:21:12.688Z,3.60
2023-01-07T13:24:11.758Z,3.70
2023-01-07T13:26:50.935Z,3.73
2023-01-07T13:29:41.498Z,3.73
2023-01-07T13:32:23.155Z,3.70
2023-01-07T13:35:09.020Z,3.30
2023-01-07T13:37:54.001Z,3.13
2023-01-07T13:40:37.757Z,3.33
2023-01-07T13:43:20.467Z,3.20
2023-01-07T13:45:53.709Z,3.20
2023-01-07T13:48:25.797Z,3.50
2023-01-07T13:51:01.119Z,3.40
2023-01-07T13:53:46.332Z,2.87
2023-01-07T13:56:45.121Z,3.40
2023-01-07T13:59:47.801Z,2.97
2023-01-07T14:02:22.398Z,3.57
2023-01-07T14:04:52.753Z,3.30
2023-01-07T14:07:22.391Z,2.73
2023-01-07T14:09:50.739Z,3.40
2023-01-07T14:12:47.280Z,4.33
2023-01-07T14:15:42.666Z,4.87
2023-01-07T14:18:39.432Z,4.27
2023-01-07T14:21:21.774Z,4.93
2023-01-07T14:24:06.294Z,4.70
2023-01-07T14:26:42.847Z,4.47
2023-01-07T14:29:33.643Z,4.83
2023-01-07T14:32:27.147Z,4.90
2023-01-07T14:34:59.025Z,4.67
2023-01-07T14:37:34.011Z,5.27
2023-01-07T14:40:33.234Z,7.90
2023-01-07T14:43:02.561Z,5.00
2023-01-07T14:45:55.963Z,5.07
2023-01-07T14:48:33.697Z,6.47
2023-01-07T14:51:34.908Z,5.90
2023-01-07T14:54:19.840Z,6.10
2023-01-07T14:57:02.298Z,6.07
2023-01-07T15:00:02.799Z,6.40
2023-01-07T15:02:58.551Z,5.60
2023-01-07T15:05:49.673Z,6.27
2023-01-07T15:08:39.485Z,6.50
2023-01-07T15:11:27.854Z,7.13
2023-01-07T15:14:18.536Z,7.30
2023-01-07T15:16:50.419Z,8.80
2023-01-07T15:19:18.944Z,12.03
2023-01-07T15:22:00.289Z,14.20
2023-01-07T15:24:37.796Z,12.03
2023-01-07T15:27:15.085Z,14.10
2023-01-07T15:29:55.436Z,11.93
2023-01-07T15:32:38.478Z,11.87
2023-01-07T15:35:10.651Z,16.73
2023-01-07T15:37:39.068Z,18.47
2023-01-07T15:40:16.856Z,28.93
2023-01-07T15:42:47.319Z,28.33
2023-01-07T15:45:21.146Z,25.27
2023-01-07T15:47:50.020Z,29.17
2023-01-07T15:50:28.594Z,29.10
2023-01-07T15:53:00.039Z,33.67
2023-01-07T15:55:30.125Z,36.60
2023-01-07T15:58:03.706Z,37.27
2023-01-07T16:00:34.888Z,40.80
2023-01-07T16:03:04.004Z,37.67
2023-01-07T16:05:32.517Z,32.53
2023-01-07T16:08:02.167Z,49.60
2023-01-07T16:10:32.535Z,46.50
2023-01-07T16:13:02.420Z,43.40
2023-01-07T16:15:35.544Z,39.10
2023-01-07T16:18:05.317Z,34.20
2023-01-07T16:20:37.529Z,26.47
2023-01-07T16:23:20.356Z,20.97
2023-01-07T16:25:52.274Z,19.50
2023-01-07T16:28:24.248Z,17.20
2023-01-07T16:30:56.494Z,15.40
2023-01-07T16:33:27.165Z,14.17
2023-01-07T16:35:59.345Z,57.27
2023-01-07T16:38:28.437Z,16.60
2023-01-07T16:40:56.918Z,19.33
2023-01-07T16:43:44.392Z,15.03
2023-01-07T16:46:28.454Z,15.43
2023-01-07T16:49:22.997Z,15.07
2023-01-07T16:51:53.336Z,16.47
2023-01-07T16:54:31.872Z,16.07
2023-01-07T16:57:02.338Z,14.63
2023-01-07T16:59:33.081Z,24.47
2023-01-07T17:02:12.934Z,23.77
2023-01-07T17:04:41.230Z,25.23
2023-01-07T17:07:20.615Z,27.23
2023-01-07T17:09:49.072Z,22.17
2023-01-07T17:12:36.352Z,20.67
2023-01-07T17:15:29.149Z,21.83
2023-01-07T17:18:26.999Z,25.90
2023-01-07T17:20:56.963Z,25.03
2023-01-07T17:23:42.258Z,24.63
2023-01-07T17:26:19.837Z,29.23
2023-01-07T17:28:51.821Z,30.80
2023-01-07T17:31:20.702Z,30.63
2023-01-07T17:33:50.903Z,29.73
2023-01-07T17:36:20.613Z,30.30
2023-01-07T17:38:48.849Z,31.23
2023-01-07T17:41:36.934Z,30.10
2023-01-07T17:44:06.985Z,26.00
2023-01-07T17:46:35.084Z,26.97
2023-01-07T17:49:05.186Z,27.30
2023-01-07T17:51:36.383Z,26.97
2023-01-07T17:54:07.354Z,27.40
2023-01-07T17:56:35.752Z,29.30
2023-01-07T17:59:03.936Z,28.27
2023-01-07T18:01:32.999Z,31.07
2023-01-07T18:04:01.290Z,30.20
2023-01-07T18:06:34.974Z,28.10
2023-01-07T18:09:05.301Z,32.53
2023-01-07T18:11:56.043Z,31.10
2023-01-07T18:14:24.174Z,32.07
2023-01-07T18:16:53.177Z,33.10
2023-01-07T18:19:22.156Z,36.27
2023-01-07T18:21:51.720Z,40.50
2023-01-07T18:24:22.397Z,36.57
2023-01-07T18:26:51.350Z,42.30
2023-01-07T18:29:19.550Z,39.07
2023-01-07T18:31:47.718Z,38.67
2023-01-07T18:34:18.042Z,38.87
2023-01-07T18:36:46.243Z,44.13
2023-01-07T18:39:20.512Z,42.60
2023-01-07T18:41:50.367Z,40.73
2023-01-07T18:44:18.851Z,38.60
2023-01-07T18:46:47.095Z,35.63
2023-01-07T18:49:16.008Z,33.27
2023-01-07T18:51:47.171Z,31.83
2023-01-07T18:54:15.967Z,33.53
2023-01-07T18:56:46.481Z,33.80
2023-01-07T18:59:15.578Z,35.13
2023-01-07T19:01:44.918Z,39.53
2023-01-07T19:04:13.183Z,40.23
2023-01-07T19:06:41.266Z,44.83
2023-01-07T19:09:10.792Z,42.77
2023-01-07T19:11:39.437Z,46.73
2023-01-07T19:14:10.210Z,44.63
2023-01-07T19:16:39.482Z,45.00
2023-01-07T19:19:07.659Z,43.80
2023-01-07T19:21:35.850Z,42.00
2023-01-07T19:24:04.712Z,42.33
2023-01-07T19:26:33.874Z,40.60
2023-01-07T19:29:03.405Z,43.27
2023-01-07T19:31:32.957Z,41.90
2023-01-07T19:34:03.032Z,39.37
2023-01-07T19:36:31.386Z,34.77
2023-01-07T19:38:59.560Z,34.23
2023-01-07T19:41:28.426Z,35.73
2023-01-07T19:44:00.180Z,34.73
2023-01-07T19:46:29.357Z,33.97
2023-01-07T19:48:59.100Z,33.10
2023-01-07T19:51:27.967Z,42.37
2023-01-07T19:53:56.417Z,41.60
2023-01-07T19:56:24.490Z,39.97
2023-01-07T19:58:54.509Z,41.90
2023-01-07T20:01:27.507Z,42.97
2023-01-07T20:03:56.797Z,39.37
2023-01-07T20:06:28.665Z,44.83
2023-01-07T20:08:58.561Z,40.83
2023-01-07T20:11:27.028Z,43.63
2023-01-07T20:13:55.220Z,41.30
2023-01-07T20:16:25.040Z,40.83
2023-01-07T20:18:55.517Z,41.03
2023-01-07T20:21:26.751Z,40.57
2023-01-07T20:23:55.646Z,39.60
2023-01-07T20:26:25.892Z,39.43
2023-01-07T20:28:54.384Z,38.60
2023-01-07T20:31:24.371Z,37.30
2023-01-07T20:33:55.538Z,37.33
2023-01-07T20:36:27.851Z,33.33
2023-01-07T20:38:56.510Z,31.93
2023-01-07T20:41:26.282Z,35.83
2023-01-07T20:43:55.909Z,33.93
2023-01-07T20:46:25.235Z,37.20
2023-01-07T20:48:53.468Z,34.03
2023-01-07T20:51:21.955Z,30.53
2023-01-07T20:53:51.560Z,29.90
2023-01-07T20:56:22.101Z,30.57
2023-01-07T20:58:52.282Z,31.70
2023-01-07T21:01:22.553Z,29.07
2023-01-07T21:03:51.424Z,29.63
2023-01-07T21:06:21.206Z,28.43
2023-01-07T21:08:51.587Z,28.90
2023-01-07T21:11:22.419Z,27.10
2023-01-07T21:13:51.366Z,26.33
2023-01-07T21:16:19.941Z,24.07
2023-01-07T21:18:48.376Z,25.37
2023-01-07T21:21:18.990Z,23.87
2023-01-07T21:23:48.326Z,23.03
2023-01-07T21:26:18.237Z,23.53
2023-01-07T21:28:46.851Z,21.70
2023-01-07T21:31:18.032Z,21.77
2023-01-07T21:33:46.379Z,20.10
2023-01-07T21:36:18.979Z,18.60
2023-01-07T21:38:48.505Z,18.80
2023-01-07T21:41:18.536Z,18.10
2023-01-07T21:43:46.544Z,16.10
2023-01-07T21:46:14.807Z,15.53
2023-01-07T21:48:46.661Z,17.03
2023-01-07T21:51:19.624Z,17.67
2023-01-07T21:53:48.098Z,18.80
2023-01-07T21:56:20.298Z,18.30
2023-01-07T21:58:48.924Z,17.03
2023-01-07T22:01:17.664Z,17.37
2023-01-07T22:03:48.938Z,15.07
2023-01-07T22:06:20.876Z,16.10
2023-01-07T22:08:51.016Z,14.27
2023-01-07T22:11:20.444Z,12.33
2023-01-07T22:13:51.319Z,12.37
2023-01-07T22:16:21.310Z,11.93
2023-01-07T22:18:49.693Z,16.00
2023-01-07T22:21:19.168Z,18.10
2023-01-07T22:23:48.609Z,15.90
2023-01-07T22:26:19.357Z,15.90
2023-01-07T22:28:52.305Z,15.67
2023-01-07T22:31:21.916Z,16.60
2023-01-07T22:33:50.104Z,12.20
2023-01-07T22:36:23.798Z,13.67
2023-01-07T22:38:54.000Z,12.57
2023-01-07T22:41:22.517Z,12.43
2023-01-07T22:43:52.965Z,11.63
2023-01-07T22:46:24.289Z,12.87
2023-01-07T22:48:52.641Z,13.87
2023-01-07T22:51:26.035Z,14.83
2023-01-07T22:53:55.780Z,15.53
2023-01-07T22:56:24.350Z,16.53
2023-01-07T22:58:54.564Z,16.30
2023-01-07T23:01:22.845Z,15.13
2023-01-07T23:03:51.018Z,14.40
2023-01-07T23:06:19.231Z,13.60
2023-01-07T23:08:47.366Z,12.53
2023-01-07T23:11:36.140Z,12.07
2023-01-07T23:14:05.631Z,18.13
2023-01-07T23:16:36.294Z,13.83
2023-01-07T23:19:04.664Z,12.97
2023-01-07T23:21:33.281Z,13.87
2023-01-07T23:24:01.881Z,15.77
2023-01-07T23:26:30.776Z,17.13
2023-01-07T23:28:58.899Z,20.87
2023-01-07T23:31:28.473Z,16.60
2023-01-07T23:33:56.719Z,18.17
2023-01-07T23:36:24.772Z,18.37
2023-01-07T23:38:53.234Z,21.40
2023-01-07T23:41:21.369Z,23.20
2023-01-07T23:43:49.504Z,25.40
2023-01-07T23:46:17.711Z,26.40
2023-01-07T23:48:50.891Z,26.50
2023-01-07T23:51:21.808Z,27.37
2023-01-07T23:53:50.088Z,27.87
2023-01-07T23:56:20.180Z,28.40
2023-01-07T23:58:48.496Z,27.73
